Haliburton, Canada
Current Conditions -  °F | °C
As of 11:47 PM on Friday 24 Oct 2014 (Local Time) from CYQA Reporting Station
Haze Haze  
Wind Chill: 36°   Ceiling: Unl
Heat Index: 36°   Visibility: 5mi
Dew Point: 36°   Wind: 2mph
Humidity: 100%   Direction: 150°SSE
Pressure: 29.88"   Gusts: NA
Location:  45.05°N, 78.51°W
Report Text: CYQA 250347Z AUTO 15002KT 5SM BR CLR 02/02 A2988 RMK SLP126
Loading
Personal Weather Stations






























Interactive Weather Map
Tropical Storm Tracking
New forecast layout! Learn more

10-Day Weather Forecast

Advertisements
Track Severe Weather on mobile